Time;durP1;ratioP1;P1;durP2;ratioP2;P2;SDS_P1;SDS_P2;PMS_P1;PMS_P2;Temp;Humidity;BMP_temperature;BMP_pressure;BME280_temperature;BME280_humidity;BME280_pressure;Samples;Min_cycle;Max_cycle;Signal;HPM_P1;HPM_P2
2021/12/19 00:00:55;;;;;;;8.80;4.63;;;5.70;99.90;4.80;100073;;;;579717;244;24074;-76
2021/12/19 00:03:47;;;;;;;4.30;3.67;;;5.70;99.90;4.80;100065;;;;579574;244;24112;-76
2021/12/19 00:08:49;;;;;;;5.00;4.20;;;5.70;99.90;4.80;100068;;;;589765;242;24092;-77
2021/12/19 00:11:17;;;;;;;6.00;4.43;;;5.70;99.90;4.80;100067;;;;589120;239;24083;-76
2021/12/19 00:13:45;;;;;;;6.20;4.73;;;5.70;99.90;4.80;100052;;;;578435;243;24067;-76
2021/12/19 00:16:15;;;;;;;7.78;5.62;;;5.70;99.90;4.90;100053;;;;583896;241;35326;-76
2021/12/19 00:18:46;;;;;;;9.27;6.03;;;5.80;99.90;4.90;100063;;;;587359;240;24146;-77
2021/12/19 00:21:11;;;;;;;7.83;5.87;;;5.80;99.90;4.90;100057;;;;579917;243;24072;-76
2021/12/19 00:23:39;;;;;;;6.47;3.87;;;5.80;99.90;4.90;100044;;;;588826;241;24166;-77
2021/12/19 00:26:07;;;;;;;5.60;4.47;;;5.80;99.90;4.90;100057;;;;588639;239;24087;-77
2021/12/19 00:28:35;;;;;;;5.73;4.23;;;5.80;99.90;5.00;100040;;;;579599;244;24042;-75
2021/12/19 00:31:02;;;;;;;9.00;4.77;;;5.80;99.90;5.00;100049;;;;579712;244;24116;-76
2021/12/19 00:33:30;;;;;;;7.30;4.40;;;5.90;99.90;5.00;100056;;;;579543;243;24072;-76
2021/12/19 00:36:02;;;;;;;6.40;4.13;;;5.90;99.90;5.00;100058;;;;588690;241;24071;-75
2021/12/19 00:38:26;;;;;;;7.60;4.53;;;5.90;99.90;5.00;100044;;;;579194;243;24071;-75
2021/12/19 00:40:56;;;;;;;9.77;5.17;;;5.90;99.90;5.00;100041;;;;588490;241;24101;-74
2021/12/19 00:43:45;;;;;;;14.30;5.20;;;5.90;99.90;5.00;100050;;;;579496;243;24101;-75
2021/12/19 00:46:07;;;;;;;8.60;4.60;;;5.90;99.90;5.00;100056;;;;587782;244;25166;-75
2021/12/19 00:48:43;;;;;;;3.73;3.37;;;6.00;99.90;5.10;100051;;;;579670;242;24102;-76
2021/12/19 00:51:14;;;;;;;10.90;7.20;;;6.00;99.90;5.10;100054;;;;574724;244;35101;-75
2021/12/19 00:53:39;;;;;;;10.43;5.63;;;5.90;99.90;5.00;100055;;;;579412;244;24100;-76
2021/12/19 00:56:07;;;;;;;10.40;6.70;;;6.00;99.90;5.10;100063;;;;574684;244;35129;-76
2021/12/19 00:58:35;;;;;;;9.80;5.17;;;6.00;99.90;5.10;100057;;;;565468;250;24122;-76
2021/12/19 01:01:04;;;;;;;9.90;4.03;;;6.00;99.90;5.10;100044;;;;585904;245;24213;-77
2021/12/19 01:03:32;;;;;;;7.87;4.50;;;6.00;99.90;5.20;100036;;;;573632;246;24148;-76
2021/12/19 01:05:59;;;;;;;9.77;5.27;;;6.00;99.90;5.20;100040;;;;576670;245;24120;-75
2021/12/19 01:08:30;;;;;;;9.87;4.20;;;6.10;99.90;5.20;100050;;;;578798;246;24165;-75
2021/12/19 01:10:55;;;;;;;5.50;3.43;;;6.10;99.90;5.20;100041;;;;576352;245;24096;-74
2021/12/19 01:13:23;;;;;;;6.80;4.47;;;6.10;99.90;5.10;100025;;;;573240;246;25190;-74
2021/12/19 01:15:54;;;;;;;11.97;4.50;;;6.00;99.90;5.20;100036;;;;576797;245;24100;-75
2021/12/19 01:18:19;;;;;;;10.47;5.30;;;6.00;99.90;5.10;100039;;;;576664;243;24192;-77
2021/12/19 01:20:47;;;;;;;9.97;4.60;;;6.00;99.90;5.20;100040;;;;575032;246;24098;-76
2021/12/19 01:23:15;;;;;;;9.17;3.97;;;6.00;99.90;5.20;100025;;;;577674;244;24100;-75
2021/12/19 01:25:43;;;;;;;13.17;6.23;;;6.00;99.90;5.20;100021;;;;582777;246;24093;-77
2021/12/19 01:28:12;;;;;;;9.33;4.57;;;6.10;99.90;5.20;100011;;;;577411;245;25136;-75
2021/12/19 01:30:40;;;;;;;10.77;4.73;;;6.10;99.90;5.20;100018;;;;573752;246;24094;-75
2021/12/19 01:33:08;;;;;;;10.03;3.77;;;6.10;99.90;5.20;100012;;;;577315;245;24139;-75
2021/12/19 01:35:36;;;;;;;13.23;4.53;;;6.10;99.90;5.20;100012;;;;577223;245;24096;-75
2021/12/19 01:38:07;;;;;;;13.30;4.50;;;6.10;99.90;5.20;100006;;;;576856;245;24122;-76
2021/12/19 01:40:32;;;;;;;7.20;3.60;;;6.10;99.90;5.20;99989;;;;573339;246;24113;-75
2021/12/19 01:42:59;;;;;;;11.03;3.60;;;6.10;99.90;5.20;99982;;;;576839;245;24120;-76
2021/12/19 01:45:30;;;;;;;10.23;5.20;;;6.10;99.90;5.20;99999;;;;585908;245;24093;-75
2021/12/19 01:48:01;;;;;;;10.67;4.40;;;6.10;99.90;5.20;99985;;;;577278;245;24103;-75
2021/12/19 01:50:26;;;;;;;4.67;2.67;;;6.10;99.90;5.20;99990;;;;577021;245;24094;-75
2021/12/19 01:52:55;;;;;;;9.60;3.63;;;6.10;99.90;5.20;99989;;;;582782;245;24131;-76
2021/12/19 01:55:22;;;;;;;12.83;4.60;;;6.10;99.90;5.20;99992;;;;577105;245;24123;-77
2021/12/19 01:57:53;;;;;;;10.30;3.90;;;6.10;99.90;5.20;99980;;;;576997;245;24099;-76
2021/12/19 02:00:18;;;;;;;14.00;3.77;;;6.10;99.90;5.20;99968;;;;576822;245;24096;-75
2021/12/19 02:02:46;;;;;;;7.03;4.00;;;6.10;99.90;5.20;99947;;;;576635;245;24094;-76
2021/12/19 02:05:14;;;;;;;7.83;4.10;;;6.10;99.90;5.20;99954;;;;573682;246;24126;-77
2021/12/19 02:07:47;;;;;;;14.20;4.40;;;6.10;99.90;5.20;99915;;;;576593;245;24126;-77
2021/12/19 02:10:10;;;;;;;6.23;3.00;;;6.10;99.90;5.20;99900;;;;572986;246;24130;-77
2021/12/19 02:12:38;;;;;;;8.97;4.07;;;6.10;99.90;5.20;99926;;;;576627;245;24093;-76
2021/12/19 02:15:09;;;;;;;5.53;3.97;;;6.10;99.90;5.20;99940;;;;585626;245;24108;-76
2021/12/19 02:17:34;;;;;;;11.02;5.15;;;6.10;99.90;5.20;99940;;;;559979;250;35450;-77
2021/12/19 02:20:01;;;;;;;8.77;3.50;;;6.10;99.90;5.20;99944;;;;576033;245;24121;-77
2021/12/19 02:22:29;;;;;;;8.50;4.13;;;6.10;99.90;5.20;99973;;;;573684;246;24070;-77
2021/12/19 02:24:57;;;;;;;11.23;3.97;;;6.10;99.90;5.20;99967;;;;577034;245;24102;-77
2021/12/19 02:27:29;;;;;;;7.20;2.90;;;6.10;99.90;5.20;99986;;;;577022;245;24220;-77
2021/12/19 02:29:56;;;;;;;7.50;3.33;;;6.10;99.90;5.20;99960;;;;573849;244;24098;-77
2021/12/19 02:32:27;;;;;;;12.90;4.17;;;6.10;99.90;5.20;99960;;;;578386;244;24102;-75
2021/12/19 02:34:54;;;;;;;8.77;3.30;;;6.10;99.90;5.20;99955;;;;577764;244;24103;-74
2021/12/19 02:48:14;;;;;;;7.43;2.63;;;6.00;99.90;5.10;99924;;;;586434;245;24115;-74
2021/12/19 02:50:50;;;;;;;5.33;2.70;;;6.00;99.90;5.10;99921;;;;573494;246;24145;-77
2021/12/19 02:53:23;;;;;;;6.43;2.37;;;6.00;99.90;5.20;99892;;;;585896;240;24078;-76
2021/12/19 02:55:44;;;;;;;2.77;1.57;;;6.00;99.90;5.20;99899;;;;573563;246;24112;-76
2021/12/19 02:58:12;;;;;;;9.57;2.80;;;6.00;99.90;5.20;99898;;;;576961;245;24095;-76
2021/12/19 03:00:40;;;;;;;8.17;3.23;;;6.00;99.90;5.20;99897;;;;573458;246;24086;-76
2021/12/19 03:03:09;;;;;;;3.83;1.57;;;6.00;99.90;5.20;99897;;;;576970;245;24092;-76
2021/12/19 03:05:37;;;;;;;7.13;3.33;;;6.00;99.90;5.20;99887;;;;573436;246;24088;-75
2021/12/19 03:08:07;;;;;;;4.53;2.17;;;6.00;99.90;5.20;99881;;;;576825;245;24109;-75
2021/12/19 03:18:23;;;;;;;10.80;2.73;;;5.90;99.90;5.00;99895;;;;587816;240;24061;-74
2021/12/19 03:20:51;;;;;;;5.77;2.10;;;5.90;99.90;5.00;99897;;;;589746;239;24035;-75
2021/12/19 03:23:19;;;;;;;3.67;2.10;;;5.90;99.90;5.00;99901;;;;589902;240;24036;-74
2021/12/19 03:25:47;;;;;;;6.90;2.23;;;5.90;99.90;5.00;99916;;;;589795;240;24124;-75
2021/12/19 03:28:15;;;;;;;1.70;1.60;;;5.90;99.90;5.00;99903;;;;589687;240;24044;-73
2021/12/19 03:30:43;;;;;;;2.83;1.43;;;5.90;99.90;5.00;99921;;;;599152;238;24041;-73
2021/12/19 03:33:12;;;;;;;3.30;1.33;;;5.80;99.90;4.90;99917;;;;589639;240;24048;-74
2021/12/19 03:35:39;;;;;;;4.03;2.50;;;5.80;99.90;4.90;99901;;;;589781;240;24067;-74
2021/12/19 03:38:07;;;;;;;6.23;1.80;;;5.70;99.90;4.90;99913;;;;599063;238;24090;-75
2021/12/19 03:40:37;;;;;;;3.57;1.10;;;5.70;99.90;4.90;99886;;;;599180;238;24063;-74
2021/12/19 03:43:09;;;;;;;9.07;2.43;;;5.70;99.90;4.80;99886;;;;590973;239;24103;-74
2021/12/19 03:45:38;;;;;;;3.63;1.93;;;5.60;99.90;4.80;99868;;;;597585;239;24085;-74
2021/12/19 03:48:10;;;;;;;1.80;1.50;;;5.60;99.90;4.70;99870;;;;599967;238;24047;-74
2021/12/19 03:50:35;;;;;;;6.57;2.07;;;5.50;99.90;4.60;99869;;;;590004;239;24061;-75
2021/12/19 03:53:06;;;;;;;4.00;1.93;;;5.50;99.90;4.60;99863;;;;599474;238;25118;-75
2021/12/19 03:55:30;;;;;;;3.47;1.67;;;5.50;99.90;4.50;99866;;;;589936;239;24084;-75
2021/12/19 03:57:59;;;;;;;5.67;2.10;;;5.40;99.90;4.50;99863;;;;590692;239;24028;-75
2021/12/19 04:00:30;;;;;;;2.40;1.90;;;5.40;99.90;4.40;99868;;;;590289;239;24148;-75
2021/12/19 04:02:55;;;;;;;2.93;2.23;;;5.30;99.90;4.50;99844;;;;589459;239;24041;-74
2021/12/19 04:05:23;;;;;;;8.90;2.13;;;5.30;99.90;4.40;99842;;;;590099;239;24085;-75
2021/12/19 04:07:51;;;;;;;3.70;2.43;;;5.20;99.90;4.30;99838;;;;599288;237;24040;-75
2021/12/19 04:10:21;;;;;;;7.77;2.77;;;5.10;99.90;4.20;99833;;;;590496;238;24063;-75
2021/12/19 04:12:47;;;;;;;6.07;2.63;;;5.10;99.90;4.20;99813;;;;599576;239;24070;-75
2021/12/19 04:15:16;;;;;;;6.50;2.27;;;5.00;99.90;4.10;99829;;;;590432;239;25088;-76
2021/12/19 04:17:44;;;;;;;8.07;1.43;;;5.00;99.90;4.00;99837;;;;590348;240;24043;-75
2021/12/19 04:20:15;;;;;;;5.93;1.77;;;4.90;99.90;4.00;99853;;;;590169;239;24029;-76
2021/12/19 04:22:40;;;;;;;5.27;2.07;;;4.90;99.90;4.00;99863;;;;589922;240;24050;-76
2021/12/19 04:25:08;;;;;;;3.87;2.00;;;4.90;99.90;4.00;99871;;;;590148;240;24060;-77
2021/12/19 04:27:40;;;;;;;1.50;1.40;;;4.90;99.90;4.00;99853;;;;588328;240;24029;-75
2021/12/19 04:30:04;;;;;;;6.60;1.40;;;4.90;99.90;4.00;99858;;;;589993;240;24032;-75
2021/12/19 04:32:38;;;;;;;2.13;2.00;;;4.90;99.90;3.90;99848;;;;599448;238;24062;-75
2021/12/19 04:35:01;;;;;;;10.20;2.30;;;4.80;99.90;3.90;99842;;;;590209;240;24043;-76
2021/12/19 04:40:21;;;;;;;8.93;3.15;;;4.80;99.90;3.80;99833;;;;585022;240;34897;-75
2021/12/19 04:51:25;;;;;;;3.30;2.10;;;4.70;99.90;3.70;99837;;;;599500;234;24038;-75
2021/12/19 04:56:26;;;;;;;11.57;1.57;;;4.60;99.90;3.70;99834;;;;590949;239;24135;-75
2021/12/19 04:59:07;;;;;;;6.27;1.97;;;4.60;99.90;3.70;99835;;;;590771;239;24050;-74
2021/12/19 05:06:49;;;;;;;3.77;1.60;;;4.50;99.90;3.60;99849;;;;590319;236;23991;-75
2021/12/19 05:14:29;;;;;;;3.20;1.47;;;4.50;99.90;3.50;99857;;;;585870;241;24042;-73
2021/12/19 05:16:51;;;;;;;3.60;2.00;;;4.40;99.90;3.60;99862;;;;585803;241;24018;-73
2021/12/19 05:19:31;;;;;;;8.60;2.10;;;4.40;99.90;3.60;99852;;;;585841;241;24059;-74
2021/12/19 05:21:47;;;;;;;4.13;2.10;;;4.50;99.90;3.60;99853;;;;576153;245;24072;-74
2021/12/19 05:24:21;;;;;;;3.57;2.13;;;4.50;99.90;3.60;99865;;;;576109;245;24102;-74
2021/12/19 05:26:45;;;;;;;3.67;1.80;;;4.50;99.90;3.60;99860;;;;575844;245;24118;-74
2021/12/19 05:29:12;;;;;;;2.60;1.80;;;4.50;99.90;3.50;99857;;;;575964;245;24070;-74
2021/12/19 05:31:43;;;;;;;8.33;2.03;;;4.50;99.90;3.50;99858;;;;575870;245;24164;-75
2021/12/19 05:34:08;;;;;;;5.53;1.83;;;4.50;99.90;3.50;99863;;;;574005;246;24172;-74
2021/12/19 05:47:23;;;;;;;2.20;1.77;;;4.40;99.90;3.50;99855;;;;585538;241;24006;-77
2021/12/19 05:49:49;;;;;;;5.30;2.37;;;4.40;99.90;3.50;99853;;;;585628;241;24062;-76
2021/12/19 05:52:17;;;;;;;3.23;1.83;;;4.40;99.90;3.50;99859;;;;585602;241;24015;-75
2021/12/19 05:54:45;;;;;;;6.87;1.93;;;4.40;99.90;3.40;99853;;;;585499;241;24014;-75
2021/12/19 05:57:15;;;;;;;8.43;1.83;;;4.40;99.90;3.40;99849;;;;585626;241;24014;-74
2021/12/19 05:59:42;;;;;;;2.83;1.70;;;4.30;99.90;3.40;99847;;;;585277;241;24101;-74
2021/12/19 06:02:10;;;;;;;5.07;2.00;;;4.30;99.90;3.40;99849;;;;584980;241;24005;-74
2021/12/19 06:04:37;;;;;;;4.17;2.40;;;4.30;99.90;3.40;99833;;;;585481;239;24054;-75
2021/12/19 06:07:05;;;;;;;3.60;2.00;;;4.30;99.90;3.40;99840;;;;586565;241;24188;-74
2021/12/19 06:09:33;;;;;;;6.80;1.90;;;4.30;99.90;3.30;99843;;;;586613;237;24046;-75
2021/12/19 06:12:02;;;;;;;3.03;1.80;;;4.30;99.90;3.40;99828;;;;586279;241;24098;-74
2021/12/19 06:14:33;;;;;;;2.17;1.23;;;4.30;99.90;3.40;99834;;;;586334;241;24040;-75
2021/12/19 06:16:59;;;;;;;4.20;1.50;;;4.30;99.90;3.40;99834;;;;586105;241;25090;-75
2021/12/19 06:19:26;;;;;;;6.40;1.90;;;4.30;99.90;3.40;99833;;;;585992;241;24178;-75
2021/12/19 06:21:54;;;;;;;3.43;1.53;;;4.30;99.90;3.30;99824;;;;586071;241;24184;-75
2021/12/19 06:24:25;;;;;;;6.10;1.43;;;4.30;99.90;3.30;99826;;;;585921;241;24032;-75
2021/12/19 06:26:50;;;;;;;3.20;1.37;;;4.20;99.90;3.30;99831;;;;585613;241;25078;-74
2021/12/19 06:29:19;;;;;;;5.33;1.50;;;4.20;99.90;3.30;99844;;;;585776;241;25072;-74
2021/12/19 06:31:47;;;;;;;2.63;1.30;;;4.20;99.90;3.30;99837;;;;585816;241;24035;-75
2021/12/19 06:34:15;;;;;;;2.23;1.43;;;4.20;99.90;3.30;99837;;;;585880;241;24043;-74
2021/12/19 06:36:43;;;;;;;5.37;1.90;;;4.20;99.90;3.30;99842;;;;585801;241;24018;-75
2021/12/19 06:39:11;;;;;;;2.23;1.50;;;4.30;99.90;3.40;99845;;;;585888;241;24025;-75
2021/12/19 06:41:39;;;;;;;3.07;1.47;;;4.30;99.90;3.40;99841;;;;585608;241;24050;-76
2021/12/19 06:44:07;;;;;;;5.18;2.62;;;4.40;99.90;3.60;99839;;;;580416;241;34870;-77
2021/12/19 06:46:35;;;;;;;6.03;2.10;;;4.50;99.90;3.60;99842;;;;592460;237;24086;-75
2021/12/19 06:49:03;;;;;;;7.07;1.70;;;4.50;99.90;3.70;99841;;;;594766;241;24083;-77
2021/12/19 06:51:32;;;;;;;7.70;2.43;;;4.70;99.90;3.80;99828;;;;585477;241;24029;-75
2021/12/19 06:54:01;;;;;;;2.57;1.27;;;4.80;99.90;3.80;99834;;;;592448;241;24039;-74
2021/12/19 06:56:29;;;;;;;4.90;1.50;;;4.80;99.90;3.90;99820;;;;592947;237;24029;-74
2021/12/19 06:58:57;;;;;;;3.67;1.53;;;4.80;99.90;4.00;99822;;;;608910;236;24054;-76
2021/12/19 07:01:24;;;;;;;5.00;1.70;;;4.90;99.90;4.00;99831;;;;596220;237;24023;-74
2021/12/19 07:03:55;;;;;;;2.40;1.23;;;4.90;99.90;4.10;99835;;;;596347;237;24007;-76
2021/12/19 07:06:21;;;;;;;5.85;2.17;;;5.00;99.90;4.10;99825;;;;593320;237;34818;-75
2021/12/19 07:08:49;;;;;;;5.47;1.77;;;5.00;99.90;4.10;99824;;;;598790;237;24078;-76
2021/12/19 07:11:17;;;;;;;3.57;1.63;;;5.00;99.90;4.10;99825;;;;596684;237;24097;-76
2021/12/19 07:13:45;;;;;;;8.07;1.77;;;5.00;99.90;4.10;99808;;;;599300;237;24043;-75
2021/12/19 07:16:13;;;;;;;4.43;1.57;;;5.10;99.90;4.20;99796;;;;593032;241;24081;-76
2021/12/19 07:18:44;;;;;;;3.57;1.20;;;5.10;99.90;4.20;99802;;;;596329;239;24079;-75
2021/12/19 07:21:09;;;;;;;6.80;1.40;;;5.10;99.90;4.20;99797;;;;573807;247;24095;-74
2021/12/19 07:23:38;;;;;;;3.30;1.73;;;5.10;99.90;4.20;99795;;;;574204;245;24051;-76
2021/12/19 07:26:06;;;;;;;3.13;1.70;;;5.10;99.90;4.20;99795;;;;584583;242;24114;-76
2021/12/19 07:28:34;;;;;;;2.50;1.30;;;5.20;99.90;4.30;99797;;;;584446;242;24090;-76
2021/12/19 07:31:01;;;;;;;5.40;1.77;;;5.20;99.90;4.30;99793;;;;584440;242;24058;-76
2021/12/19 07:33:29;;;;;;;7.07;1.97;;;5.20;99.90;4.30;99792;;;;584435;242;24064;-76
2021/12/19 07:36:00;;;;;;;5.37;1.90;;;5.20;99.90;4.30;99803;;;;584226;242;24055;-76
2021/12/19 07:38:32;;;;;;;2.50;1.60;;;5.30;99.90;4.30;99795;;;;584113;242;24140;-77
2021/12/19 07:40:56;;;;;;;6.87;1.90;;;5.20;99.90;4.30;99790;;;;584169;242;24101;-76
2021/12/19 07:43:22;;;;;;;2.87;1.90;;;5.20;99.90;4.30;99795;;;;584120;242;24130;-76
2021/12/19 07:45:50;;;;;;;2.40;1.87;;;5.20;99.90;4.30;99788;;;;584170;242;24065;-76
2021/12/19 07:48:18;;;;;;;5.47;1.63;;;5.30;99.90;4.40;99790;;;;584160;242;24052;-76
2021/12/19 07:50:45;;;;;;;3.57;1.60;;;5.30;99.90;4.40;99783;;;;593311;242;24116;-76
2021/12/19 07:53:13;;;;;;;4.47;1.90;;;5.30;99.90;4.40;99777;;;;584038;242;24067;-77
2021/12/19 07:55:41;;;;;;;5.87;1.77;;;5.30;99.90;4.30;99782;;;;583895;242;24080;-77
2021/12/19 07:58:09;;;;;;;5.67;2.53;;;5.30;99.90;4.30;99773;;;;593014;242;25130;-77
2021/12/19 08:00:37;;;;;;;3.57;2.40;;;5.20;99.90;4.30;99783;;;;583893;242;24080;-77
2021/12/19 08:03:05;;;;;;;3.43;2.47;;;5.20;99.90;4.30;99775;;;;592709;240;24125;-77
2021/12/19 08:05:33;;;;;;;5.57;2.30;;;5.20;99.90;4.30;99779;;;;583725;242;24058;-77
2021/12/19 08:08:03;;;;;;;4.17;2.03;;;5.20;99.90;4.30;99780;;;;592972;242;24118;-76
2021/12/19 08:13:00;;;;;;;5.13;2.37;;;5.20;99.90;4.30;99778;;;;582882;242;24059;-75
2021/12/19 08:15:28;;;;;;;7.43;2.60;;;5.20;99.90;4.30;99783;;;;583567;242;24060;-75
2021/12/19 08:17:56;;;;;;;7.53;2.27;;;5.20;99.90;4.40;99793;;;;593051;242;24106;-76
2021/12/19 08:20:26;;;;;;;4.33;2.47;;;5.30;99.90;4.40;99792;;;;582288;242;24128;-76
2021/12/19 08:22:53;;;;;;;7.43;2.93;;;5.30;99.90;4.50;99787;;;;583956;242;24100;-75
2021/12/19 08:25:20;;;;;;;3.77;2.60;;;5.30;99.90;4.50;99796;;;;583976;242;24056;-76
2021/12/19 08:27:48;;;;;;;7.10;2.70;;;5.50;99.90;4.70;99788;;;;584108;240;24084;-76
2021/12/19 08:30:20;;;;;;;6.47;2.50;;;5.50;99.90;4.80;99769;;;;585356;242;24050;-75
2021/12/19 08:32:44;;;;;;;4.27;2.53;;;5.60;99.90;4.80;99770;;;;584541;242;24073;-75
2021/12/19 08:35:12;;;;;;;6.93;2.77;;;5.70;99.90;4.90;99774;;;;584796;242;24127;-75
2021/12/19 08:37:40;;;;;;;5.77;2.60;;;5.80;99.90;4.90;99756;;;;584688;242;25101;-76
2021/12/19 08:40:11;;;;;;;4.73;2.23;;;5.80;99.90;4.90;99758;;;;583486;242;24055;-75
2021/12/19 08:42:39;;;;;;;7.70;3.83;;;5.80;99.90;5.00;99762;;;;584331;242;24058;-76
2021/12/19 08:45:06;;;;;;;6.67;3.30;;;5.80;99.90;5.00;99762;;;;584092;242;24062;-76
2021/12/19 08:47:31;;;;;;;6.40;3.00;;;5.90;99.90;5.00;99764;;;;584017;242;24107;-78
2021/12/19 08:49:59;;;;;;;5.57;3.00;;;5.90;99.90;5.00;99774;;;;584203;242;24082;-77
2021/12/19 08:52:27;;;;;;;3.50;2.17;;;5.90;99.90;5.00;99776;;;;585112;240;24017;-77
2021/12/19 08:54:55;;;;;;;3.07;1.67;;;5.90;99.90;5.00;99779;;;;576130;244;24057;-75
2021/12/19 08:57:23;;;;;;;5.37;1.77;;;5.90;99.90;5.00;99781;;;;578619;244;24059;-75
2021/12/19 08:59:55;;;;;;;4.90;2.40;;;6.00;99.90;5.10;99781;;;;578705;244;24059;-76
2021/12/19 09:02:19;;;;;;;3.57;1.97;;;6.00;99.90;5.10;99783;;;;587486;244;24076;-76
2021/12/19 09:04:47;;;;;;;2.53;1.90;;;6.00;99.90;5.10;99774;;;;578087;244;24067;-77
2021/12/19 09:07:15;;;;;;;2.90;1.40;;;6.00;99.90;5.10;99786;;;;577891;244;24072;-77
2021/12/19 09:09:43;;;;;;;4.47;2.03;;;6.00;99.90;5.10;99783;;;;578086;244;24078;-75
2021/12/19 09:12:14;;;;;;;2.83;1.87;;;6.00;99.90;5.10;99778;;;;588460;244;24064;-76
2021/12/19 09:14:38;;;;;;;4.87;1.43;;;6.00;99.90;5.10;99768;;;;577901;244;24069;-76
2021/12/19 09:17:07;;;;;;;3.73;1.50;;;6.00;99.90;5.10;99775;;;;575999;244;24065;-75
2021/12/19 09:19:35;;;;;;;5.33;2.40;;;6.00;99.90;5.10;99775;;;;578381;244;24057;-75
2021/12/19 09:22:07;;;;;;;4.07;2.00;;;6.00;99.90;5.10;99778;;;;578363;244;24085;-75
2021/12/19 09:24:31;;;;;;;2.80;1.83;;;6.00;99.90;5.10;99783;;;;575533;244;24058;-74
2021/12/19 09:27:00;;;;;;;2.97;1.80;;;6.00;99.90;5.20;99779;;;;571539;249;24116;-74
2021/12/19 09:29:28;;;;;;;6.50;2.30;;;6.10;99.90;5.20;99773;;;;557893;253;24124;-75
2021/12/19 09:31:55;;;;;;;1.57;1.47;;;6.10;99.90;5.20;99778;;;;588298;244;24059;-74
2021/12/19 09:34:23;;;;;;;5.27;2.40;;;6.10;99.90;5.20;99786;;;;588291;244;24073;-75
2021/12/19 09:36:51;;;;;;;4.03;2.07;;;6.10;99.90;5.20;99784;;;;579409;244;24095;-75
2021/12/19 09:39:19;;;;;;;2.53;1.90;;;6.10;99.90;5.20;99779;;;;579555;242;24114;-74
2021/12/19 09:41:48;;;;;;;1.77;1.63;;;6.10;99.90;5.20;99778;;;;580905;243;24135;-74
2021/12/19 09:44:15;;;;;;;6.13;1.60;;;6.10;99.90;5.20;99774;;;;580278;243;24076;-75
2021/12/19 09:46:44;;;;;;;5.35;2.75;;;6.10;99.90;5.20;99779;;;;575174;244;35096;-75
2021/12/19 09:49:11;;;;;;;7.83;2.10;;;6.10;99.90;5.20;99772;;;;579499;244;24128;-75
2021/12/19 09:51:39;;;;;;;3.20;1.73;;;6.10;99.90;5.20;99763;;;;579947;244;24067;-75
2021/12/19 09:54:08;;;;;;;4.73;2.90;;;6.20;99.90;5.30;99758;;;;580054;243;24049;-75
2021/12/19 09:56:36;;;;;;;2.80;1.90;;;6.20;99.90;5.30;99757;;;;579919;243;24056;-74
2021/12/19 09:59:04;;;;;;;3.53;2.20;;;6.30;99.90;5.40;99749;;;;579725;241;24049;-76
2021/12/19 10:01:32;;;;;;;4.93;1.70;;;6.30;99.90;5.40;99742;;;;577874;244;24083;-75
2021/12/19 10:04:00;;;;;;;3.27;1.60;;;6.30;99.90;5.50;99734;;;;579708;244;24107;-75
2021/12/19 10:06:28;;;;;;;5.73;2.23;;;6.30;99.90;5.50;99729;;;;579428;242;24080;-77
2021/12/19 10:09:18;;;;;;;6.20;2.20;;;6.40;99.90;5.50;99728;;;;579368;244;24093;-75
2021/12/19 10:14:34;;;;;;;3.87;2.30;;;6.40;99.90;5.60;99729;;;;579358;244;24086;-75
2021/12/19 10:17:08;;;;;;;9.27;2.87;;;6.60;99.90;5.70;99725;;;;588438;243;24064;-75
2021/12/19 10:19:45;;;;;;;10.90;3.00;;;6.50;99.90;5.80;99713;;;;576657;244;24068;-74
2021/12/19 10:22:28;;;;;;;9.77;3.13;;;6.60;99.90;5.90;99725;;;;575371;243;24108;-77
2021/12/19 10:24:56;;;;;;;9.63;3.30;;;6.70;99.90;6.00;99727;;;;579515;244;24067;-75
2021/12/19 10:27:34;;;;;;;9.40;3.70;;;6.90;99.90;6.10;99724;;;;579027;244;25105;-75
2021/12/19 10:30:02;;;;;;;5.60;2.90;;;6.90;99.90;6.10;99730;;;;579237;244;24064;-75
2021/12/19 10:32:29;;;;;;;5.53;3.70;;;7.00;99.90;6.00;99720;;;;579077;244;24055;-74
2021/12/19 10:35:13;;;;;;;6.23;3.50;;;6.90;99.90;6.00;99729;;;;579017;244;24071;-75
2021/12/19 10:37:44;;;;;;;7.30;3.00;;;6.90;99.90;6.00;99720;;;;555565;254;24139;-75
2021/12/19 10:40:09;;;;;;;5.60;3.43;;;6.90;99.90;6.00;99711;;;;552571;253;24131;-75
2021/12/19 10:42:58;;;;;;;8.10;3.03;;;6.90;99.90;6.00;99719;;;;577613;244;24140;-74
2021/12/19 10:45:30;;;;;;;3.30;1.90;;;6.90;99.90;6.10;99721;;;;555554;254;24195;-75
2021/12/19 10:48:14;;;;;;;2.50;1.30;;;6.90;99.90;6.10;99730;;;;568940;248;24095;-74
2021/12/19 10:50:47;;;;;;;5.23;1.80;;;6.90;99.90;6.10;99729;;;;563909;250;24212;-75
2021/12/19 10:53:15;;;;;;;3.03;1.97;;;6.90;99.90;6.10;99733;;;;589628;239;24075;-75
2021/12/19 10:55:46;;;;;;;1.73;1.23;;;6.90;99.90;6.10;99728;;;;588976;240;25302;-75
2021/12/19 10:58:21;;;;;;;5.00;1.63;;;6.90;99.90;6.00;99732;;;;588276;240;25112;-75
2021/12/19 11:00:58;;;;;;;4.00;1.77;;;6.90;99.90;6.00;99701;;;;588649;240;24131;-75
2021/12/19 11:03:44;;;;;;;5.53;2.33;;;6.90;99.90;6.00;99701;;;;588467;240;24071;-75
2021/12/19 11:06:26;;;;;;;1.97;1.60;;;6.90;99.90;6.00;99722;;;;588159;240;24066;-75
2021/12/19 11:08:55;;;;;;;2.00;1.30;;;6.90;99.90;6.00;99707;;;;581786;240;24102;-76
2021/12/19 11:11:41;;;;;;;3.77;0.93;;;6.90;99.90;6.00;99708;;;;588683;240;24195;-75
2021/12/19 11:14:11;;;;;;;4.17;1.93;;;6.90;99.90;6.00;99711;;;;588742;240;24079;-75
2021/12/19 11:16:39;;;;;;;1.93;1.73;;;6.90;99.90;6.00;99700;;;;588536;240;24076;-75
2021/12/19 11:19:07;;;;;;;3.50;2.30;;;6.90;99.90;6.00;99677;;;;588327;240;24073;-75
2021/12/19 11:21:38;;;;;;;1.57;1.30;;;6.90;99.90;5.90;99657;;;;588266;240;24096;-77
2021/12/19 11:24:06;;;;;;;0.83;0.80;;;6.80;99.90;5.90;99658;;;;587573;236;24051;-76
2021/12/19 11:26:37;;;;;;;2.40;1.50;;;6.80;99.90;5.90;99658;;;;592872;236;34820;-76
2021/12/19 11:29:02;;;;;;;2.20;0.70;;;6.80;99.90;5.90;99663;;;;597835;236;24058;-75
2021/12/19 11:31:31;;;;;;;2.50;0.90;;;6.80;99.90;5.90;99668;;;;607577;232;24079;-75
2021/12/19 11:34:21;;;;;;;1.13;0.77;;;6.80;99.90;5.90;99661;;;;607478;236;24040;-76
2021/12/19 11:37:08;;;;;;;0.90;0.90;;;6.80;99.90;5.90;99674;;;;606175;236;24144;-76
2021/12/19 11:39:38;;;;;;;1.77;1.10;;;6.70;99.90;5.80;99670;;;;590255;241;24051;-75
2021/12/19 11:42:14;;;;;;;2.00;1.03;;;6.70;99.90;5.80;99660;;;;585423;242;24074;-75
2021/12/19 11:44:47;;;;;;;1.07;0.80;;;6.70;99.90;5.80;99650;;;;597900;236;24068;-74
2021/12/19 11:47:14;;;;;;;1.90;1.70;;;6.70;99.90;5.80;99643;;;;597530;236;24076;-75
2021/12/19 11:49:36;;;;;;;0.93;0.90;;;6.70;99.90;5.80;99647;;;;597998;236;24047;-75
2021/12/19 11:52:25;;;;;;;1.93;0.90;;;6.70;99.90;5.70;99673;;;;597987;236;24063;-74
2021/12/19 11:55:15;;;;;;;1.77;0.77;;;6.50;99.90;5.60;99659;;;;607298;236;24064;-75
2021/12/19 11:58:09;;;;;;;4.10;2.20;;;6.40;99.90;5.40;99670;;;;598020;236;24028;-75
2021/12/19 12:00:50;;;;;;;12.20;5.33;;;6.30;99.90;5.20;99679;;;;597965;236;24086;-75
2021/12/19 12:03:21;;;;;;;17.17;8.80;;;6.20;99.90;5.10;99676;;;;598635;235;24026;-75
2021/12/19 12:05:47;;;;;;;11.80;5.93;;;5.90;99.90;4.90;99672;;;;599061;236;24099;-75
2021/12/19 12:08:15;;;;;;;12.67;6.97;;;5.80;99.90;4.90;99668;;;;607903;232;24194;-76
2021/12/19 12:10:53;;;;;;;7.10;4.13;;;5.70;99.90;4.90;99673;;;;608361;232;24142;-74
2021/12/19 12:13:26;;;;;;;1.57;0.70;;;5.80;99.90;4.90;99665;;;;585660;241;24078;-77
2021/12/19 12:16:25;;;;;;;3.77;1.70;;;5.80;99.90;4.90;99678;;;;585495;241;24067;-76
2021/12/19 12:18:55;;;;;;;1.00;0.90;;;5.70;99.90;4.90;99675;;;;583575;241;24094;-75
2021/12/19 12:21:38;;;;;;;3.60;1.57;;;5.80;99.90;4.90;99676;;;;574406;246;24064;-74
2021/12/19 12:24:06;;;;;;;3.03;1.33;;;5.80;99.90;4.90;99665;;;;569161;246;35356;-76
2021/12/19 12:26:41;;;;;;;1.43;0.77;;;5.70;99.90;4.90;99677;;;;585266;241;24096;-77
2021/12/19 12:29:05;;;;;;;3.87;0.87;;;5.80;99.90;4.90;99661;;;;597479;236;24065;-76
2021/12/19 12:31:33;;;;;;;1.27;1.00;;;5.80;99.90;4.90;99672;;;;607535;236;24035;-75
2021/12/19 12:34:00;;;;;;;1.07;0.97;;;5.80;99.90;4.80;99658;;;;607434;236;24054;-76
2021/12/19 12:36:28;;;;;;;0.87;0.83;;;5.70;99.90;4.60;99648;;;;607285;236;24088;-75
2021/12/19 12:38:56;;;;;;;2.70;1.20;;;5.60;99.90;4.50;99646;;;;607381;232;24054;-74
2021/12/19 12:41:47;;;;;;;1.27;0.90;;;5.40;99.90;4.40;99627;;;;597437;236;24052;-75
2021/12/19 12:43:58;;;;;;;1.83;0.80;;;5.30;99.90;4.30;99628;;;;605862;236;24026;-74